createdAt,value
2022-12-28T00:03:49.491Z,19.02
2022-12-28T00:08:55.828Z,18.75
2022-12-28T00:13:59.946Z,19.25
2022-12-28T00:19:04.798Z,18.58
2022-12-28T00:24:07.406Z,16.15
2022-12-28T00:29:09.332Z,14.95
2022-12-28T00:34:11.243Z,16.50
2022-12-28T00:39:12.903Z,13.77
2022-12-28T00:44:14.650Z,20.40
2022-12-28T00:49:16.444Z,19.67
2022-12-28T00:54:18.074Z,15.82
2022-12-28T00:59:19.921Z,15.63
2022-12-28T01:04:21.657Z,16.23
2022-12-28T01:09:23.344Z,16.98
2022-12-28T01:14:25.166Z,18.23
2022-12-28T01:19:27.703Z,18.10
2022-12-28T01:24:29.514Z,12.55
2022-12-28T01:29:35.141Z,16.15
2022-12-28T01:34:36.896Z,13.90
2022-12-28T01:39:38.655Z,16.27
2022-12-28T01:44:44.130Z,14.83
2022-12-28T01:50:03.362Z,12.95
2022-12-28T01:55:09.859Z,15.27
2022-12-28T02:00:14.547Z,13.20
2022-12-28T02:05:20.303Z,13.68
2022-12-28T02:15:45.039Z,13.48
2022-12-28T02:21:09.519Z,12.77
2022-12-28T02:26:20.260Z,14.07
2022-12-28T02:31:33.859Z,13.82
2022-12-28T02:36:41.658Z,15.43
2022-12-28T02:41:47.081Z,13.07
2022-12-28T02:47:09.350Z,12.13
2022-12-28T02:52:53.482Z,15.07
2022-12-28T02:58:26.590Z,12.50
2022-12-28T03:03:40.570Z,15.67
2022-12-28T03:08:54.212Z,17.02
2022-12-28T03:14:03.076Z,14.70
2022-12-28T03:19:27.052Z,15.27
2022-12-28T03:24:52.895Z,13.93
2022-12-28T03:30:25.178Z,17.40
2022-12-28T03:35:38.925Z,16.17
2022-12-28T03:40:49.446Z,12.90
2022-12-28T03:45:56.962Z,11.75
2022-12-28T03:50:59.860Z,13.63
2022-12-28T03:56:10.560Z,14.35
2022-12-28T04:01:13.559Z,12.45
2022-12-28T04:06:18.287Z,12.65
2022-12-28T04:11:19.984Z,11.90
2022-12-28T04:16:27.476Z,17.80
2022-12-28T04:21:29.277Z,14.67
2022-12-28T04:26:31.505Z,12.87
2022-12-28T04:31:33.450Z,12.90
2022-12-28T04:36:44.821Z,13.57
2022-12-28T04:41:49.562Z,11.45
2022-12-28T04:46:51.442Z,9.47
2022-12-28T04:51:53.151Z,16.17
2022-12-28T04:56:54.825Z,11.38
2022-12-28T05:01:56.605Z,12.88
2022-12-28T05:06:58.371Z,11.03
2022-12-28T05:12:00.094Z,12.10
2022-12-28T05:17:01.872Z,12.93
2022-12-28T05:22:03.915Z,15.00
2022-12-28T05:27:05.660Z,10.33
2022-12-28T05:32:07.479Z,12.35
2022-12-28T05:37:09.172Z,11.10
2022-12-28T05:42:10.945Z,11.00
2022-12-28T05:47:13.784Z,9.23
2022-12-28T05:52:15.486Z,9.43
2022-12-28T05:57:17.114Z,10.82
2022-12-28T06:02:24.415Z,10.15
2022-12-28T06:07:26.521Z,8.35
2022-12-28T06:12:28.174Z,9.95
2022-12-28T06:17:29.864Z,8.88
2022-12-28T06:22:31.616Z,8.77
2022-12-28T06:27:33.288Z,11.75
2022-12-28T06:32:34.934Z,9.38
2022-12-28T06:37:36.604Z,8.38
2022-12-28T06:42:38.230Z,10.65
2022-12-28T06:47:40.100Z,7.97
2022-12-28T06:52:42.294Z,7.82
2022-12-28T06:57:44.053Z,8.60
2022-12-28T07:02:45.896Z,9.90
2022-12-28T07:07:47.624Z,7.47
2022-12-28T07:12:49.256Z,8.85
2022-12-28T07:17:50.908Z,10.65
2022-12-28T07:22:54.621Z,7.35
2022-12-28T07:27:56.397Z,6.82
2022-12-28T07:32:58.076Z,7.68
2022-12-28T07:37:59.779Z,6.68
2022-12-28T07:43:01.449Z,8.25
2022-12-28T07:48:03.267Z,6.70
2022-12-28T07:53:05.080Z,7.37
2022-12-28T07:58:06.748Z,7.28
2022-12-28T08:03:08.489Z,6.82
2022-12-28T08:08:10.341Z,6.70
2022-12-28T08:13:12.016Z,6.70
2022-12-28T08:18:13.751Z,8.30
2022-12-28T08:23:15.595Z,8.00
2022-12-28T08:28:17.293Z,8.77
2022-12-28T08:33:19.015Z,8.13
2022-12-28T08:38:20.673Z,7.07
2022-12-28T08:43:22.434Z,8.73
2022-12-28T08:48:24.447Z,7.17
2022-12-28T08:53:26.271Z,5.37
2022-12-28T08:58:28.024Z,5.70
2022-12-28T09:03:30.112Z,6.90
2022-12-28T09:08:32.157Z,5.10
2022-12-28T09:13:34.852Z,5.33
2022-12-28T09:18:37.493Z,5.43
2022-12-28T09:23:40.266Z,5.65
2022-12-28T09:28:55.767Z,5.15
2022-12-28T09:39:24.805Z,6.13
2022-12-28T09:44:32.084Z,4.55
2022-12-28T09:49:58.795Z,4.45
2022-12-28T09:55:13.575Z,4.57
2022-12-28T10:00:43.093Z,4.60
2022-12-28T10:05:45.297Z,4.97
2022-12-28T10:10:49.211Z,4.03
2022-12-28T10:15:52.896Z,3.70
2022-12-28T10:20:55.937Z,6.15
2022-12-28T10:25:59.539Z,5.95
2022-12-28T10:31:12.190Z,4.25
2022-12-28T10:36:16.171Z,4.13
2022-12-28T10:41:20.387Z,4.63
2022-12-28T10:46:24.142Z,5.45
2022-12-28T10:51:29.559Z,6.28
2022-12-28T10:56:48.476Z,3.78
2022-12-28T11:01:50.538Z,3.35
2022-12-28T11:06:57.752Z,3.73
2022-12-28T11:12:23.947Z,3.65
2022-12-28T11:17:30.758Z,4.55
2022-12-28T11:22:33.790Z,3.13
2022-12-28T11:27:36.114Z,7.63
2022-12-28T11:32:43.489Z,4.53
2022-12-28T11:37:50.100Z,5.03
2022-12-28T11:42:56.210Z,3.25
2022-12-28T11:48:36.489Z,3.78
2022-12-28T11:53:45.058Z,3.55
2022-12-28T11:59:01.173Z,5.57
2022-12-28T12:04:05.685Z,3.50
2022-12-28T12:09:25.896Z,4.93
2022-12-28T12:14:42.952Z,4.20
2022-12-28T12:19:50.548Z,3.45
2022-12-28T12:24:58.791Z,4.93
2022-12-28T12:30:04.582Z,6.75
2022-12-28T12:35:07.898Z,4.40
2022-12-28T12:40:09.650Z,3.80
2022-12-28T12:45:40.918Z,4.03
2022-12-28T12:50:42.552Z,3.35
2022-12-28T12:56:07.603Z,3.97
2022-12-28T13:01:18.597Z,2.80
2022-12-28T13:06:24.364Z,4.63
2022-12-28T13:11:26.726Z,4.85
2022-12-28T13:16:31.123Z,4.72
2022-12-28T13:21:44.917Z,4.50
2022-12-28T13:26:46.603Z,3.92
2022-12-28T13:31:51.426Z,3.90
2022-12-28T13:36:58.227Z,2.92
2022-12-28T13:42:04.431Z,4.93
2022-12-28T13:47:18.082Z,6.90
2022-12-28T13:52:28.640Z,4.15
2022-12-28T13:57:55.774Z,9.20
2022-12-28T14:02:58.053Z,3.38
2022-12-28T14:08:00.047Z,3.38
2022-12-28T14:13:03.936Z,4.90
2022-12-28T14:18:06.286Z,4.43
2022-12-28T14:23:23.429Z,5.57
2022-12-28T14:28:42.472Z,3.30
2022-12-28T14:34:24.302Z,3.63
2022-12-28T14:39:35.734Z,4.30
2022-12-28T14:44:40.464Z,4.88
2022-12-28T14:49:44.101Z,4.80
2022-12-28T14:54:49.741Z,4.10
2022-12-28T15:00:01.121Z,6.95
2022-12-28T15:05:03.460Z,10.77
2022-12-28T15:10:05.728Z,5.38
2022-12-28T15:15:10.153Z,4.35
2022-12-28T15:20:11.959Z,5.40
2022-12-28T15:25:13.704Z,4.20
2022-12-28T15:30:21.640Z,15.07
2022-12-28T15:35:26.242Z,4.13
2022-12-28T15:40:28.803Z,5.38
2022-12-28T15:45:31.723Z,5.18
2022-12-28T15:55:35.042Z,5.68
2022-12-28T16:00:36.799Z,5.97
2022-12-28T16:05:38.522Z,4.57
2022-12-28T16:10:40.238Z,6.00
2022-12-28T16:15:41.888Z,4.90
2022-12-28T16:20:43.640Z,6.63
2022-12-28T16:25:51.366Z,8.48
2022-12-28T16:30:53.479Z,5.00
2022-12-28T16:35:59.528Z,5.97
2022-12-28T16:41:01.791Z,4.30
2022-12-28T16:46:08.494Z,6.30
2022-12-28T16:51:11.942Z,6.03
2022-12-28T16:56:13.778Z,5.35
2022-12-28T17:01:15.698Z,6.15
2022-12-28T17:06:18.080Z,6.90
2022-12-28T17:11:19.812Z,4.00
2022-12-28T17:16:21.593Z,6.18
2022-12-28T17:21:23.415Z,6.75
2022-12-28T17:26:25.869Z,8.63
2022-12-28T17:31:28.086Z,6.97
2022-12-28T17:36:29.804Z,6.03
2022-12-28T17:41:31.629Z,4.70
2022-12-28T17:46:37.737Z,6.63
2022-12-28T17:51:43.429Z,5.75
2022-12-28T17:56:45.111Z,6.00
2022-12-28T18:01:46.839Z,4.78
2022-12-28T18:06:48.646Z,6.93
2022-12-28T18:11:50.367Z,6.15
2022-12-28T18:16:52.246Z,5.68
2022-12-28T18:21:54.062Z,7.43
2022-12-28T18:26:55.825Z,3.33
2022-12-28T18:31:57.666Z,4.35
2022-12-28T18:36:59.322Z,3.90
2022-12-28T18:42:02.620Z,7.55
2022-12-28T18:47:04.509Z,5.80
2022-12-28T18:52:06.337Z,6.45
2022-12-28T18:57:08.313Z,5.18
2022-12-28T19:02:17.516Z,16.77
2022-12-28T19:07:21.220Z,5.68
2022-12-28T19:12:22.877Z,4.93
2022-12-28T19:17:24.624Z,4.90
2022-12-28T19:22:26.524Z,5.43
2022-12-28T19:27:28.224Z,5.75
2022-12-28T19:32:30.562Z,5.90
2022-12-28T19:37:32.199Z,5.82
2022-12-28T19:42:33.960Z,6.45
2022-12-28T19:47:35.718Z,5.75
2022-12-28T19:52:37.381Z,5.40
2022-12-28T19:57:39.676Z,6.15
2022-12-28T20:02:41.782Z,5.57
2022-12-28T20:07:43.655Z,5.00
2022-12-28T20:12:45.367Z,8.75
2022-12-28T20:17:47.461Z,4.68
2022-12-28T20:22:49.273Z,7.33
2022-12-28T20:27:50.968Z,4.60
2022-12-28T20:32:52.664Z,5.65
2022-12-28T20:37:54.345Z,5.78
2022-12-28T20:43:14.828Z,6.45
2022-12-28T20:48:17.323Z,5.75
2022-12-28T20:53:19.138Z,5.60
2022-12-28T20:58:20.977Z,10.32
2022-12-28T21:03:22.684Z,4.88
2022-12-28T21:08:30.386Z,5.73
2022-12-28T21:13:32.455Z,5.05
2022-12-28T21:18:35.578Z,7.03
2022-12-28T21:23:37.537Z,5.03
2022-12-28T21:28:39.499Z,5.37
2022-12-28T21:33:41.923Z,5.67
2022-12-28T21:38:44.914Z,5.53
2022-12-28T21:43:46.606Z,5.35
2022-12-28T21:48:48.366Z,6.10
2022-12-28T21:53:50.050Z,6.65
2022-12-28T21:58:52.275Z,5.93
2022-12-28T22:04:12.801Z,7.03
2022-12-28T22:09:33.298Z,4.80
2022-12-28T22:14:34.924Z,6.15
2022-12-28T22:19:36.828Z,5.63
2022-12-28T22:24:38.492Z,4.90
2022-12-28T22:29:40.259Z,7.10
2022-12-28T22:34:41.860Z,8.13
2022-12-28T22:39:43.492Z,9.70
2022-12-28T22:44:45.184Z,10.18
2022-12-28T22:49:46.893Z,8.27
2022-12-28T22:54:48.533Z,6.72
2022-12-28T22:59:50.465Z,13.98
2022-12-28T23:04:52.115Z,7.88
2022-12-28T23:09:54.041Z,6.18
2022-12-28T23:15:14.498Z,7.78
2022-12-28T23:20:35.828Z,7.85
2022-12-28T23:25:59.289Z,4.75
2022-12-28T23:31:01.391Z,5.75
2022-12-28T23:36:04.178Z,3.70
2022-12-28T23:41:24.976Z,4.70
2022-12-28T23:46:26.724Z,4.38
2022-12-28T23:51:28.426Z,4.32
2022-12-28T23:56:30.131Z,5.90
